Terminal Aerodrome Forecast
Issued by NWS Chicago, IL

Home | Current Version | Previous Version | Graphics & Text | Print | Product List | Glossary Off
Versions: 1 2 3 4 5 6 7 8 9 10 11 12 13 14 15 16 17 18 19 20

000
FTUS43 KLOT 231738
TAFRFD
TAF
KRFD 231738Z 2318/2418 05010G18KT P6SM BKN250
     FM241100 03004KT P6SM OVC030
     FM241300 04005KT P6SM OVC035=

USA.gov is the U.S. government's official web portal to all federal, state and local government web resources and services.